Home > Products > Valid Products > TAF

000
FTUS42 KCHS 022337
TAFCHS
TAF
KCHS 022337Z 0300/0324 15006KT P6SM SCT020 BKN080
     FM030400 16004KT P6SM SCT025 BKN040
     FM030800 VRB03KT P6SM VCSH SCT015 BKN030
      TEMPO 0309/0312 4SM SHRA BR
     FM031400 20008KT P6SM SCT025 BKN050=



000
FTUS42 KCHS 022337
TAFSAV
TAF
KSAV 022337Z 0300/0324 14006KT 4SM -SHRA BR SCT015 BKN025
      TEMPO 0300/0301 P6SM NSW SCT020 BKN040
     FM030100 VRB03KT P6SM SCT020 BKN040
     FM031000 VRB03KT P6SM BKN025
     FM031500 17008KT P6SM SCT025 BKN050=



000
FTUS42 KCHS 022323 AAC
TAFSAV
TAF AMD
KSAV 022323Z 0223/0318 19005KT 5SM -SHRA BR SCT020 BKN045
      TEMPO 0223/0224 1 1/2SM +SHRA BKN025
     FM030400 VRB03KT P6SM SCT020 BKN040
     FM031000 VRB03KT P6SM BKN025
     FM031500 17008KT P6SM SCT025 BKN050=



000
FTUS42 KCHS 022323 AAC
TAFSAV
TAF AMD
KSAV 022323Z 0223/0318 19005KT 5SM -SHRA BR SCT020 BKN045
      TEMPO 0223/0224 1 1/2SM +SHRA BKN025
     FM030400 VRB03KT P6SM SCT020 BKN040
     FM031000 VRB03KT P6SM BKN025
     FM031500 17008KT P6SM SCT025 BKN050=



000
FTUS42 KCHS 022245 AAB
TAFSAV
TAF AMD
KSAV 022245Z 0223/0318 14006KT P6SM VCSH SCT020 BKN100
      TEMPO 0223/0301 5SM -SHRA SCT020 BKN045
     FM030400 VRB03KT P6SM SCT020 BKN040
     FM031000 VRB03KT P6SM BKN025
     FM031500 17008KT P6SM SCT025 BKN050=



000
FTUS42 KCHS 022002 AAA
TAFSAV
TAF AMD
KSAV 022002Z 0220/0318 12008KT P6SM VCSH SCT015 BKN035
      TEMPO 0220/0222 4SM SHRA BKN015
     FM022300 VRB04KT P6SM SCT025 BKN100
     FM031500 17008KT P6SM SCT025 BKN050=



000
FTUS42 KCHS 022002 AAA
TAFSAV
TAF AMD
KSAV 022002Z 0220/0318 12008KT P6SM VCSH SCT015 BKN035
      TEMPO 0220/0222 4SM SHRA BKN015
     FM022300 VRB04KT P6SM SCT025 BKN100
     FM031500 17008KT P6SM SCT025 BKN050=



000
FTUS42 KCHS 021739
TAFSAV
TAF
KSAV 021739Z 0218/0318 12008KT P6SM VCSH SCT015 BKN035
      TEMPO 0218/0220 4SM SHRA BKN015
     FM022300 VRB04KT P6SM SCT025 BKN100
     FM031500 17008KT P6SM SCT025 BKN050=



000
FTUS42 KCHS 021739
TAFCHS
TAF
KCHS 021739Z 0218/0318 16010KT P6SM VCTS BKN035CB
      TEMPO 0218/0220 3SM TSRA BKN025CB
     FM022100 16009KT P6SM SCT040 BKN150
     FM030000 VRB04KT P6SM SCT025 BKN080
     FM031500 20010KT P6SM SCT025 BKN050=



000
FTUS42 KCHS 021739
TAFSAV
TAF
KSAV 021739Z 0218/0318 12008KT P6SM VCSH SCT015 BKN035
      TEMPO 0218/0220 4SM SHRA BKN015
     FM022300 VRB04KT P6SM SCT025 BKN100
     FM031500 17008KT P6SM SCT025 BKN050=



000
FTUS42 KCHS 021739
TAFCHS
TAF
KCHS 021739Z 0218/0318 16010KT P6SM VCTS BKN035CB
      TEMPO 0218/0220 3SM TSRA BKN025CB
     FM022100 16009KT P6SM SCT040 BKN150
     FM030000 VRB04KT P6SM SCT025 BKN080
     FM031500 20010KT P6SM SCT025 BKN050=



000
FTUS42 KCHS 021445 AAB
TAFCHS
TAF AMD
KCHS 021445Z 0215/0312 12006KT P6SM SCT025 SCT100
      TEMPO 0215/0218 4SM SHRA BKN030
     FM021800 15009KT P6SM SCT040 BKN150
     FM030000 VRB04KT P6SM SCT015 SCT250=



000
FTUS42 KCHS 021418 AAA
TAFSAV
TAF AMD
KSAV 021418Z 0214/0312 12006KT P6SM VCSH SCT015 BKN035
      TEMPO 0214/0218 4SM SHRA BKN015
     FM021800 12009KT P6SM VCSH SCT040
     FM022300 VRB04KT P6SM SCT015=



000
FTUS42 KCHS 021418 AAA
TAFSAV
TAF AMD
KSAV 021418Z 0214/0312 12006KT P6SM VCSH SCT015 BKN035
      TEMPO 0214/0218 4SM SHRA BKN015
     FM021800 12009KT P6SM VCSH SCT040
     FM022300 VRB04KT P6SM SCT015=



000
FTUS42 KCHS 021133
TAFCHS
TAF
KCHS 021133Z 0212/0312 21004KT P6SM SCT025 SCT100
      TEMPO 0212/0214 BKN030
     FM021800 15009KT P6SM SCT040 BKN150
     FM030000 VRB04KT P6SM SCT015 SCT250=



000
FTUS42 KCHS 021133
TAFSAV
TAF
KSAV 021133Z 0212/0312 VRB03KT P6SM FEW005 SCT015 BKN150
      TEMPO 0212/0214 BKN018
     FM021400 12006KT P6SM VCSH SCT015 BKN035
     FM021800 12009KT P6SM VCSH SCT040
     FM022300 VRB04KT P6SM SCT015=



000
FTUS42 KCHS 021133
TAFCHS
TAF
KCHS 021133Z 0212/0312 21004KT P6SM SCT025 SCT100
      TEMPO 0212/0214 BKN030
     FM021800 15009KT P6SM SCT040 BKN150
     FM030000 VRB04KT P6SM SCT015 SCT250=



000
FTUS42 KCHS 021133
TAFSAV
TAF
KSAV 021133Z 0212/0312 VRB03KT P6SM FEW005 SCT015 BKN150
      TEMPO 0212/0214 BKN018
     FM021400 12006KT P6SM VCSH SCT015 BKN035
     FM021800 12009KT P6SM VCSH SCT040
     FM022300 VRB04KT P6SM SCT015=



000
FTUS42 KCHS 020938 AAA
TAFSAV
TAF AMD
KSAV 020938Z 0210/0306 VRB03KT 6SM BR BKN015
      TEMPO 0210/0212 BKN009
     FM021330 12006KT P6SM SCT015 BKN035
     FM021800 12009KT P6SM VCTS SCT040CB
     FM022300 VRB04KT P6SM SCT015=



000
FTUS42 KCHS 020938 AAA
TAFSAV
TAF AMD
KSAV 020938Z 0210/0306 VRB03KT 6SM BR BKN015
      TEMPO 0210/0212 BKN009
     FM021330 12006KT P6SM SCT015 BKN035
     FM021800 12009KT P6SM VCTS SCT040CB
     FM022300 VRB04KT P6SM SCT015=



000
FTUS42 KCHS 020535
TAFSAV
TAF
KSAV 020535Z 0206/0306 VRB03KT 6SM BR BKN015
      TEMPO 0209/0212 4SM BR BKN006
     FM021330 12006KT P6SM SCT015 BKN035
     FM021800 12009KT P6SM VCTS SCT040CB
     FM022300 VRB04KT P6SM SCT015=



000
FTUS42 KCHS 020535
TAFCHS
TAF
KCHS 020535Z 0206/0306 21004KT P6SM FEW090
      TEMPO 0210/0213 SCT012 BKN020
     FM021300 06005KT P6SM VCSH SCT020 BKN035
     FM021700 16009KT P6SM SCT040 BKN150
     FM030000 VRB04KT P6SM SCT015=



000
FTUS42 KCHS 012335
TAFCHS
TAF
KCHS 012335Z 0200/0224 20005KT P6SM SCT250
     FM020800 VRB03KT 6SM MIFG FEW025
      TEMPO 0209/0212 4SM BR SCT010 SCT020
     FM021300 06005KT P6SM SCT020 BKN040
     FM021600 17008KT P6SM SCT040=



000
FTUS42 KCHS 012335
TAFSAV
TAF
KSAV 012335Z 0200/0224 VRB03KT P6SM SCT030 BKN080
     FM020500 VRB03KT P6SM FEW020
     FM020900 VRB03KT 6SM MIFG SCT006 BKN012
     FM021400 12006KT P6SM SCT015 BKN025
     FM021600 17010KT P6SM SCT040=



000
FTUS42 KCHS 012335
TAFSAV
TAF
KSAV 012335Z 0200/0224 VRB03KT P6SM SCT030 BKN080
     FM020500 VRB03KT P6SM FEW020
     FM020900 VRB03KT 6SM MIFG SCT006 BKN012
     FM021400 12006KT P6SM SCT015 BKN025
     FM021600 17010KT P6SM SCT040=



000
FTUS42 KCHS 012335
TAFCHS
TAF
KCHS 012335Z 0200/0224 20005KT P6SM SCT250
     FM020800 VRB03KT 6SM MIFG FEW025
      TEMPO 0209/0212 4SM BR SCT010 SCT020
     FM021300 06005KT P6SM SCT020 BKN040
     FM021600 17008KT P6SM SCT040=



000
FTUS42 KCHS 012029 AAA
TAFSAV
TAF AMD
KSAV 012029Z 0120/0218 14006KT P6SM VCTS SCT025 BKN035CB
      TEMPO 0120/0122 VRB15G25KT 2SM TSRA SCT015 BKN025CB
     FM012200 14007KT P6SM VCSH SCT025 BKN100
     FM020000 VRB03KT P6SM SCT200=



000
FTUS42 KCHS 011945 AAA
TAFCHS
TAF AMD
KCHS 011945Z 0120/0218 19009KT P6SM VCSH SCT030 BKN100
     FM020000 VRB04KT P6SM SCT200
      TEMPO 0208/0212 4SM BR=



000
FTUS42 KCHS 011945 AAA
TAFCHS
TAF AMD
KCHS 011945Z 0120/0218 19009KT P6SM VCSH SCT030 BKN100
     FM020000 VRB04KT P6SM SCT200
      TEMPO 0208/0212 4SM BR=



000
FTUS42 KCHS 011733
TAFCHS
TAF
KCHS 011733Z 0118/0218 14010KT P6SM VCTS SCT035CB
      TEMPO 0118/0120 5SM TSRA SCT015 BKN030CB
     FM012100 19009KT P6SM VCSH SCT030 BKN100
     FM020000 VRB04KT P6SM SCT200
      TEMPO 0208/0212 4SM BR=



000
FTUS42 KCHS 011733
TAFSAV
TAF
KSAV 011733Z 0118/0218 14006KT P6SM VCTS SCT025 BKN035CB
      TEMPO 0118/0121 4SM TSRA SCT015 BKN025CB
     FM012100 14007KT P6SM VCSH SCT025 BKN100
     FM020000 VRB03KT P6SM SCT200=



000
FTUS42 KCHS 011602 AAB
TAFCHS
TAF AMD
KCHS 011602Z 0116/0212 VRB06KT P6SM VCTS SCT035CB
      TEMPO 0116/0120 5SM TSRA SCT015 BKN030CB
     FM012000 19008KT P6SM VCSH SCT030 BKN150
     FM020000 VRB04KT P6SM SCT015 BKN200=



000
FTUS42 KCHS 011602 AAB
TAFCHS
TAF AMD
KCHS 011602Z 0116/0212 VRB06KT P6SM VCTS SCT035CB
      TEMPO 0116/0120 5SM TSRA SCT015 BKN030CB
     FM012000 19008KT P6SM VCSH SCT030 BKN150
     FM020000 VRB04KT P6SM SCT015 BKN200=



000
FTUS42 KCHS 011503 AAA
TAFCHS
TAF AMD
KCHS 011503Z 0115/0212 VRB04KT P6SM VCSH SCT035
      TEMPO 0115/0119 5SM SHRA SCT015 BKN030
     FM011900 19008KT P6SM VCSH SCT030 BKN150
     FM020000 VRB04KT P6SM SCT015 BKN200=



000
FTUS42 KCHS 011151 CCA
TAFCHS
TAF COR
KCHS 011151Z 0112/0212 VRB04KT P6SM VCSH BKN018
      TEMPO 0115/0119 6SM SHRA SCT015 BKN030
     FM011900 19008KT P6SM VCSH SCT030 BKN150
     FM020000 VRB04KT P6SM SCT015 BKN200=



000
FTUS42 KCHS 011151 CCA
TAFCHS
TAF COR
KCHS 011151Z 0112/0212 VRB04KT P6SM VCSH BKN018
      TEMPO 0115/0119 6SM SHRA SCT015 BKN030
     FM011900 19008KT P6SM VCSH SCT030 BKN150
     FM020000 VRB04KT P6SM SCT015 BKN200=



000
FTUS42 KCHS 011138
TAFSAV
TAF
KSAV 011138Z 0112/0212 27003KT 3SM BR BKN003
     FM011300 26004KT P6SM BKN012
     FM011400 VRB04KT P6SM SCT025 BKN035
      TEMPO 0117/0121 4SM +TSRA BKN025CB
     FM021000 15006KT P6SM SCT015 BKN200=



000
FTUS42 KCHS 011138
TAFCHS
TAF
KCHS 011138Z 0112/0212 VRB04KT P6SM VCSH SCT015 BKN060
      TEMPO 0115/0119 6SM SHRA SCT015 BKN030
     FM011900 19008KT P6SM VCSH SCT030 BKN150
     FM020000 VRB04KT P6SM SCT015 BKN200=



000
FTUS42 KCHS 011138
TAFSAV
TAF
KSAV 011138Z 0112/0212 27003KT 3SM BR BKN003
     FM011300 26004KT P6SM BKN012
     FM011400 VRB04KT P6SM SCT025 BKN035
      TEMPO 0117/0121 4SM +TSRA BKN025CB
     FM021000 15006KT P6SM SCT015 BKN200=



000
FTUS42 KCHS 011138
TAFCHS
TAF
KCHS 011138Z 0112/0212 VRB04KT P6SM VCSH SCT015 BKN060
      TEMPO 0115/0119 6SM SHRA SCT015 BKN030
     FM011900 19008KT P6SM VCSH SCT030 BKN150
     FM020000 VRB04KT P6SM SCT015 BKN200=



000
FTUS42 KCHS 010955 AAD
TAFSAV
TAF AMD
KSAV 010955Z 0110/0206 VRB03KT 4SM BR SCT003
      TEMPO 0110/0112 2SM BR BKN003
     FM011500 VRB05KT P6SM SCT025 BKN060
      TEMPO 0115/0119 5SM SHRA BKN025
     FM011900 16007KT P6SM VCSH SCT030 BKN100
     FM020000 21004KT P6SM SCT015 BKN250=



000
FTUS42 KCHS 010917 AAC
TAFSAV
TAF AMD
KSAV 010917Z 0109/0206 VRB03KT P6SM SCT003
     FM011500 VRB05KT P6SM SCT025 BKN060
      TEMPO 0115/0119 5SM SHRA BKN025
     FM011900 16007KT P6SM VCSH SCT030 BKN100
     FM020000 21004KT P6SM SCT015 BKN250=



000
FTUS42 KCHS 010855 AAB
TAFSAV
TAF AMD
KSAV 010855Z 0109/0206 VRB03KT P6SM BKN005
     FM011200 VRB03KT 6SM BR SCT005 BKN010
     FM011500 VRB05KT P6SM SCT025 BKN060
      TEMPO 0115/0119 5SM SHRA BKN025
     FM011900 16007KT P6SM VCSH SCT030 BKN100
     FM020000 21004KT P6SM SCT015 BKN250=



000
FTUS42 KCHS 010758 AAA
TAFSAV
TAF AMD
KSAV 010758Z 0108/0206 VRB03KT P6SM BKN005
     FM010900 VRB03KT 6SM BR SCT005 BKN010
     FM011500 VRB05KT P6SM SCT025 BKN060
      TEMPO 0115/0119 5SM SHRA BKN025
     FM011900 16007KT P6SM VCSH SCT030 BKN100
     FM020000 21004KT P6SM SCT015 BKN250=



000
FTUS42 KCHS 010600 CCA
TAFSAV
TAF COR
KSAV 010600Z 0106/0206 VRB03KT 3SM BR BKN003
     FM010800 VRB03KT 6SM BR SCT004 BKN015
     FM011500 VRB05KT P6SM SCT025 BKN060
      TEMPO 0115/0119 5SM SHRA BKN025
     FM011900 16007KT P6SM VCSH SCT030 BKN100
     FM020000 21004KT P6SM SCT015 BKN250=



000
FTUS42 KCHS 010600 CCA
TAFSAV
TAF COR
KSAV 010600Z 0106/0206 VRB03KT 3SM BR BKN003
     FM010800 VRB03KT 6SM BR SCT004 BKN015
     FM011500 VRB05KT P6SM SCT025 BKN060
      TEMPO 0115/0119 5SM SHRA BKN025
     FM011900 16007KT P6SM VCSH SCT030 BKN100
     FM020000 21004KT P6SM SCT015 BKN250=



000
FTUS42 KCHS 010521
TAFCHS
TAF
KCHS 010521Z 0106/0206 VRB03KT P6SM VCSH SCT015 BKN250
      TEMPO 0110/0113 FEW005 BKN020
     FM011500 VRB05KT P6SM VCSH SCT025 BKN060
     FM011900 19008KT P6SM VCSH SCT030 BKN100
     FM020000 22005KT P6SM SCT015 BKN250=



000
FTUS42 KCHS 010521
TAFSAV
TAF
KSAV 010521Z 0106/0206 VRB03KT P6SM SCT015 BKN250
     FM011500 VRB05KT P6SM SCT025 BKN060
      TEMPO 0115/0119 5SM SHRA BKN025
     FM011900 16007KT P6SM VCSH SCT030 BKN100
     FM020000 21004KT P6SM SCT015 BKN250=



000
FTUS42 KCHS 010251 AAA
TAFCHS
TAF AMD
KCHS 010251Z 0103/0124 VRB03KT P6SM SCT018 BKN100
      TEMPO 0103/0105 BKN018
     FM010900 VRB03KT 6SM BR SCT015 SCT080
     FM011400 VRB05KT P6SM VCSH SCT025 BKN060
     FM011900 19008KT P6SM VCSH SCT030 BKN100=



000
FTUS42 KCHS 312339
TAFCHS
TAF
KCHS 312339Z 0100/0124 VRB05KT P6SM SCT030 BKN100
     FM010900 VRB03KT 6SM BR SCT015 SCT080
     FM011400 VRB05KT P6SM VCSH SCT025 BKN060
     FM011900 19008KT P6SM VCSH SCT030 BKN100=



000
FTUS42 KCHS 312339
TAFCHS
TAF
KCHS 312339Z 0100/0124 VRB05KT P6SM SCT030 BKN100
     FM010900 VRB03KT 6SM BR SCT015 SCT080
     FM011400 VRB05KT P6SM VCSH SCT025 BKN060
     FM011900 19008KT P6SM VCSH SCT030 BKN100=



000
FTUS42 KCHS 312339
TAFSAV
TAF
KSAV 312339Z 0100/0124 VRB03KT P6SM SCT045 BKN150
     FM010900 VRB03KT 6SM BR SCT015 SCT080
     FM011400 VRB05KT P6SM VCSH SCT025 BKN060
     FM011900 16007KT P6SM VCSH SCT030 BKN100=



000
FTUS42 KCHS 312339
TAFSAV
TAF
KSAV 312339Z 0100/0124 VRB03KT P6SM SCT045 BKN150
     FM010900 VRB03KT 6SM BR SCT015 SCT080
     FM011400 VRB05KT P6SM VCSH SCT025 BKN060
     FM011900 16007KT P6SM VCSH SCT030 BKN100=



000
FTUS42 KCHS 312225 AAC
TAFCHS
TAF AMD
KCHS 312225Z 3122/0118 20010KT P6SM VCTS SCT030CB BKN120
      TEMPO 3122/3124 5SM -SHRA BKN030
     FM010000 20007KT P6SM SCT025 BKN100
     FM010300 24005KT P6SM SCT025 BKN180=



000
FTUS42 KCHS 312124 AAB
TAFCHS
TAF AMD
KCHS 312124Z 3121/0118 20010KT P6SM VCTS SCT030CB BKN120
     FM312300 20007KT P6SM SCT025 BKN100
     FM010300 24005KT P6SM SCT025 BKN180=



000
FTUS42 KCHS 312102 AAA
TAFSAV
TAF AMD
KSAV 312102Z 3121/0118 VRB03KT P6SM -TSRA SCT025 BKN060CB
     FM312200 19008KT P6SM VCSH SCT025 BKN100
     FM010300 22004KT P6SM SCT025 BKN180=



000
FTUS42 KCHS 312035 AAA
TAFCHS
TAF AMD
KCHS 312035Z 3121/0118 20010KT P6SM VCTS SCT030CB BKN120
      TEMPO 3121/3122 VRB10G20KT 3SM TSRA SCT015 BKN025CB
     FM312200 20007KT P6SM SCT025 BKN100
     FM010300 24005KT P6SM SCT025 BKN180=



000
FTUS42 KCHS 311720
TAFSAV
TAF
KSAV 311720Z 3118/0118 20006KT P6SM VCTS SCT035CB BKN120
      TEMPO 3118/3121 VRB15G25KT 3SM TSRA SCT015 BKN025CB
     FM312100 19008KT P6SM VCSH SCT025 BKN100
     FM010300 22004KT P6SM SCT025 BKN180=



000
FTUS42 KCHS 311720
TAFCHS
TAF
KCHS 311720Z 3118/0118 20009KT P6SM SCT040 BKN120
      TEMPO 3118/3121 VRB10G20KT 3SM TSRA SCT015 BKN025CB
     FM312100 20007KT P6SM SCT025 BKN100
     FM010300 24005KT P6SM SCT025 BKN180=



000
FTUS42 KCHS 311628 AAC
TAFCHS
TAF AMD
KCHS 311628Z 3116/0112 20006KT P6SM FEW030 BKN100
     FM311700 20009KT P6SM SCT040 BKN120
      TEMPO 3117/3121 5SM TSRA SCT015 BKN035CB
     FM312100 20007KT P6SM VCSH SCT025 BKN180
     FM010300 24005KT P6SM SCT025 BKN180=



000
FTUS42 KCHS 311535 AAB
TAFCHS
TAF AMD
KCHS 311535Z 3116/0112 20006KT P6SM BKN030
     FM311700 20009KT P6SM SCT040 BKN120
      TEMPO 3117/3121 5SM TSRA SCT015 BKN035CB
     FM312100 20007KT P6SM VCSH SCT025 BKN180
     FM010300 24005KT P6SM SCT025 BKN180=



000
FTUS42 KCHS 311232 AAA
TAFSAV
TAF AMD
KSAV 311232Z 3112/0112 25005KT P6SM VCSH SCT030 BKN100
     FM311700 23006KT P6SM SCT035 BKN140
      TEMPO 3117/3121 5SM TSRA SCT015 BKN035CB
     FM312100 20007KT P6SM VCSH SCT025 BKN180
     FM010300 22004KT P6SM SCT025 BKN180=



000
FTUS42 KCHS 311133
TAFCHS
TAF
KCHS 311133Z 3112/0112 26005KT P6SM SCT030 BKN100
     FM311700 20009KT P6SM SCT040 BKN120
      TEMPO 3117/3121 5SM TSRA SCT015 BKN035CB
     FM312100 20007KT P6SM VCSH SCT025 BKN180
     FM010300 24005KT P6SM SCT025 BKN180=



000
FTUS42 KCHS 311133
TAFSAV
TAF
KSAV 311133Z 3112/0112 25005KT P6SM SCT030 BKN100
     FM311700 23006KT P6SM SCT035 BKN140
      TEMPO 3117/3121 5SM TSRA SCT015 BKN035CB
     FM312100 20007KT P6SM VCSH SCT025 BKN180
     FM010300 22004KT P6SM SCT025 BKN180=



000
FTUS42 KCHS 310523
TAFSAV
TAF
KSAV 310523Z 3106/0106 VRB03KT P6SM SCT020 BKN090
      TEMPO 3113/3116 BKN025
     FM311700 20010KT P6SM VCTS SCT035CB BKN140
     FM010000 23007KT P6SM SCT025 BKN180=



000
FTUS42 KCHS 310523
TAFCHS
TAF
KCHS 310523Z 3106/0106 24005KT P6SM SCT015 BKN070
     FM311700 20010KT P6SM VCTS SCT035CB BKN140
     FM010000 23007KT P6SM SCT025 BKN180=



000
FTUS42 KCHS 310523
TAFCHS
TAF
KCHS 310523Z 3106/0106 24005KT P6SM SCT015 BKN070
     FM311700 20010KT P6SM VCTS SCT035CB BKN140
     FM010000 23007KT P6SM SCT025 BKN180=



000
FTUS42 KCHS 310523
TAFSAV
TAF
KSAV 310523Z 3106/0106 VRB03KT P6SM SCT020 BKN090
      TEMPO 3113/3116 BKN025
     FM311700 20010KT P6SM VCTS SCT035CB BKN140
     FM010000 23007KT P6SM SCT025 BKN180=



000
FTUS42 KCHS 310224 AAA
TAFSAV
TAF AMD
KSAV 310224Z 3102/3124 VRB03KT P6SM FEW090 SCT250
      TEMPO 3102/3104 6SM -SHRA
     FM310800 VRB02KT P6SM SCT015
     FM311400 25005KT P6SM SCT040 BKN080
     FM311800 17008KT P6SM VCSH BKN040=



    US Dept of Commerce
    National Oceanic and Atmospheric Administration
    National Weather Service
    1325 East West Highway
    Silver Spring, MD 20910
    Page Author: NWS Internet Services Team
Disclaimer
Information Quality
Credits
Glossary
Privacy Policy
Freedom of Information Act (FOIA)
About Us
Career Opportunities